Tashtagol, Russia
Current Conditions -  °F | °C
As of 8:30 AM on Wednesday 26 Nov 2014 (Local Time) from UNAA Reporting Station
Overcast Overcast  
Wind Chill: -1°   Ceiling: 10000
Heat Index: 14°   Visibility: 6mi
Dew Point:   Wind: 13mph
Humidity: 57%   Direction: 200°SSW
Pressure: 29.88"   Gusts: NA
Location:  52.78°N, 87.88°E
Report Text: UNAA 260130Z 20006MPS 9999 SCT030CB OVC100 M10/M17 Q1012 NOSIGRMK QFE737 20090060
Loading
Personal Weather Stations






























Interactive Weather Map New forecast layout! Learn more

10-Day Weather Forecast

Advertisements
Track Severe Weather on mobile